Portada
METAR-TAF:

METAR-TAF

Aeroports :

Nova Delhi, Índia

latitud: 28-34N, longitud: 077-07E, altitud: 220 m

Observació

L'informe es va fer fa 39 minuts, a les 16:30 UTC
Vent 3 kt del Est/Nord-Est
Temperatura 30°C
Humitat 79%
Pressió 1006 hPa
Visibilitat: 3000 m
Escasses núvols a una alçada de 3000 ft
Núvols disperses a una alçada de 10000 ft
boirina

METAR: VIDP 191630Z 06003KT 3000 BR FEW030 SCT100 30/26 Q1006 NOSIG

Hora: 22:39 (17:09 UTC)

Pronòstic

L'informe es va fer fa 3 hores i 9 minuts, a les 14:00 UTC
Pronòstic vàlid del 19 a les 15 UTC al 19 a les 24 UTC
Vent 4 kt del Nord-Oest
Visibilitat: 3000 m
Escasses núvols a una alçada de 3000 ft
Núvols disperses a una alçada de 10000 ft
Evolucionant progressivament
l' 19 a les 18 UTC al 19 a les 20 UTC
Vent kt del Nord
Visibilitat: 2000 m
calitja, boirina

TAF: VIDP 191400Z 1915/1924 32004KT 3000 FEW030 SCT100 BECMG 1918/1920 00000KT 2000 HZ BR

Observacions i pronòstics meteorològics de més de 4000 aeroports (METAR i TAF).

Les estacions disponibles són els punts grocs i vermells al mapa.

Posi el ratolí al punt desitjat per veure el nom de l'estació.

Feu clic per veure les observacions i els pronòstics meteorològics.

Per canviar el mapa: feu clic els botons verds amb una creu de color negre per apropar; al botó verd amb un guió per allunyar la imatge; o en les fletxes verdes per a mapes adjacents.


METAR-TAF: